AAL3013 KMIA-KLAX
Flight info
| Callsign | AAL3013 |
|---|---|
| Flight time | 5h 30m |
| Altitude | 30000 |
| Route | GLADZ4 BAGGS REMIS Y280 LEV J86 CUZZZ/N0470F320 J86 ELP J50 SSO J4 WLVRN ESTWD HLYWD1 |
| Aircraft | A321/M-SDE3FGHIRWY/LB1 |
Departure
| Time | 2026-05-05 15:38 |
|---|---|
| Airport | Miami International Airport (KMIA) |
Arrival
| Time | 2026-05-05 21:08 |
|---|---|
| Airport | Los Angeles International Airport (KLAX) |
| Time | Latitude | Longitude | Altitude | Speed | Heading |
|---|---|---|---|---|---|
| 2026-05-05 15:07 | 25.79823 | -80.28317 | 16 ft | 0 kts | 178° |
| 2026-05-05 15:29 | 25.79824 | -80.28317 | 15 ft | 2 kts | 178° |
| 2026-05-05 15:29 | 25.79849 | -80.28318 | 17 ft | 4 kts | 178° |
| 2026-05-05 15:29 | 25.79871 | -80.28319 | 18 ft | 4 kts | 190° |
| 2026-05-05 15:29 | 25.79887 | -80.28307 | 18 ft | 4 kts | 262° |
| 2026-05-05 15:30 | 25.79889 | -80.28280 | 16 ft | 3 kts | 267° |
| 2026-05-05 15:30 | 25.79889 | -80.28276 | 16 ft | 0 kts | 267° |
| 2026-05-05 15:31 | 25.79889 | -80.28280 | 16 ft | 1 kts | 267° |
| 2026-05-05 15:32 | 25.79888 | -80.28299 | 18 ft | 3 kts | 267° |
| 2026-05-05 15:32 | 25.79887 | -80.28329 | 17 ft | 5 kts | 268° |
| 2026-05-05 15:32 | 25.79886 | -80.28372 | 16 ft | 6 kts | 268° |
| 2026-05-05 15:32 | 25.79900 | -80.28420 | 17 ft | 8 kts | 324° |
| 2026-05-05 15:33 | 25.79946 | -80.28466 | 17 ft | 10 kts | 285° |
| 2026-05-05 15:33 | 25.79978 | -80.28525 | 17 ft | 10 kts | 343° |
| 2026-05-05 15:33 | 25.80025 | -80.28581 | 18 ft | 11 kts | 275° |
| 2026-05-05 15:33 | 25.80023 | -80.28664 | 21 ft | 11 kts | 267° |
| 2026-05-05 15:34 | 25.80020 | -80.28750 | 22 ft | 12 kts | 268° |
| 2026-05-05 15:34 | 25.80015 | -80.28856 | 21 ft | 16 kts | 267° |
| 2026-05-05 15:34 | 25.80009 | -80.29002 | 20 ft | 21 kts | 267° |
| 2026-05-05 15:34 | 25.80001 | -80.29171 | 22 ft | 22 kts | 267° |
| 2026-05-05 15:35 | 25.79994 | -80.29338 | 18 ft | 23 kts | 267° |
| 2026-05-05 15:35 | 25.79987 | -80.29521 | 13 ft | 24 kts | 268° |
| 2026-05-05 15:35 | 25.79981 | -80.29705 | 14 ft | 23 kts | 267° |
| 2026-05-05 15:35 | 25.79973 | -80.29884 | 12 ft | 23 kts | 267° |
| 2026-05-05 15:36 | 25.79967 | -80.30019 | 12 ft | 13 kts | 267° |
| 2026-05-05 15:36 | 25.80001 | -80.30100 | 14 ft | 11 kts | 329° |
| 2026-05-05 15:36 | 25.80067 | -80.30096 | 14 ft | 10 kts | 53° |
| 2026-05-05 15:36 | 25.80075 | -80.30019 | 12 ft | 11 kts | 87° |
| 2026-05-05 15:37 | 25.80077 | -80.29976 | 12 ft | 15 kts | 87° |
| 2026-05-05 15:37 | 25.80093 | -80.29583 | 14 ft | 85 kts | 87° |
| 2026-05-05 15:37 | 25.80131 | -80.28710 | 20 ft | 140 kts | 87° |
| 2026-05-05 15:37 | 25.80183 | -80.27449 | 64 ft | 182 kts | 87° |
| 2026-05-05 15:38 | 25.80246 | -80.26144 | 953 ft | 160 kts | 85° |
| 2026-05-05 15:38 | 25.80306 | -80.24903 | 1588 ft | 162 kts | 85° |
| 2026-05-05 15:38 | 25.80361 | -80.23650 | 2068 ft | 163 kts | 85° |
| 2026-05-05 15:38 | 25.80413 | -80.22385 | 2434 ft | 166 kts | 84° |
| 2026-05-05 15:39 | 25.80462 | -80.21104 | 2831 ft | 167 kts | 84° |
| 2026-05-05 15:39 | 25.80510 | -80.19805 | 3233 ft | 169 kts | 86° |
| 2026-05-05 15:39 | 25.80557 | -80.18491 | 3638 ft | 172 kts | 85° |
| 2026-05-05 15:39 | 25.80882 | -80.17184 | 3824 ft | 185 kts | 54° |
| 2026-05-05 15:40 | 25.81859 | -80.16207 | 3972 ft | 197 kts | 21° |
| 2026-05-05 15:40 | 25.83237 | -80.15932 | 4120 ft | 209 kts | 1° |
| 2026-05-05 15:40 | 25.84737 | -80.15882 | 4255 ft | 222 kts | 360° |
| 2026-05-05 15:40 | 25.86311 | -80.15831 | 4487 ft | 229 kts | 360° |
| 2026-05-05 15:41 | 25.87911 | -80.15779 | 4751 ft | 231 kts | 0° |
| 2026-05-05 15:41 | 25.89535 | -80.15857 | 4923 ft | 240 kts | 348° |
| 2026-05-05 15:41 | 25.91209 | -80.16351 | 5018 ft | 259 kts | 340° |
| 2026-05-05 15:41 | 25.92948 | -80.16969 | 5353 ft | 270 kts | 342° |
| 2026-05-05 15:42 | 25.94769 | -80.17606 | 5933 ft | 272 kts | 341° |
| 2026-05-05 15:42 | 25.96507 | -80.18343 | 6519 ft | 272 kts | 328° |
| 2026-05-05 15:42 | 25.97974 | -80.19653 | 7046 ft | 272 kts | 309° |
| 2026-05-05 15:42 | 25.98957 | -80.21445 | 7564 ft | 274 kts | 290° |
| 2026-05-05 15:43 | 25.99366 | -80.23517 | 8088 ft | 276 kts | 277° |
| 2026-05-05 15:43 | 25.99602 | -80.25635 | 8645 ft | 277 kts | 277° |
| 2026-05-05 15:43 | 25.99773 | -80.27770 | 9193 ft | 278 kts | 270° |
| 2026-05-05 15:43 | 25.99767 | -80.29920 | 9750 ft | 279 kts | 270° |
| 2026-05-05 15:44 | 25.99763 | -80.32086 | 10220 ft | 283 kts | 270° |
| 2026-05-05 15:44 | 25.99761 | -80.34335 | 10335 ft | 299 kts | 270° |
| 2026-05-05 15:44 | 25.99762 | -80.36712 | 10454 ft | 315 kts | 270° |
| 2026-05-05 15:44 | 25.99752 | -80.39205 | 10576 ft | 330 kts | 267° |
| 2026-05-05 15:45 | 25.99400 | -80.41785 | 10695 ft | 345 kts | 255° |
| 2026-05-05 15:45 | 25.98509 | -80.44301 | 10977 ft | 354 kts | 243° |
| 2026-05-05 15:45 | 25.97120 | -80.46579 | 11403 ft | 359 kts | 233° |
| 2026-05-05 15:45 | 25.95564 | -80.48762 | 11885 ft | 361 kts | 234° |
| 2026-05-05 15:46 | 25.94005 | -80.50960 | 12349 ft | 363 kts | 234° |
| 2026-05-05 15:46 | 25.92443 | -80.53171 | 12820 ft | 364 kts | 234° |
| 2026-05-05 15:46 | 25.90897 | -80.55364 | 13275 ft | 366 kts | 234° |
| 2026-05-05 15:46 | 25.89324 | -80.57597 | 13733 ft | 368 kts | 234° |
| 2026-05-05 15:47 | 25.87740 | -80.59842 | 14160 ft | 370 kts | 235° |
| 2026-05-05 15:47 | 25.86664 | -80.61366 | 14417 ft | 372 kts | 235° |
| 2026-05-05 15:47 | 25.84539 | -80.64371 | 14932 ft | 375 kts | 235° |
| 2026-05-05 15:47 | 25.82921 | -80.66652 | 15325 ft | 378 kts | 235° |
| 2026-05-05 15:48 | 25.81290 | -80.68949 | 15710 ft | 380 kts | 236° |
| 2026-05-05 15:48 | 25.79670 | -80.71274 | 16083 ft | 381 kts | 239° |
| 2026-05-05 15:48 | 25.78364 | -80.73817 | 16448 ft | 379 kts | 250° |
| 2026-05-05 15:48 | 25.77489 | -80.76566 | 16849 ft | 378 kts | 256° |
| 2026-05-05 15:49 | 25.76735 | -80.79369 | 17234 ft | 380 kts | 257° |
| 2026-05-05 15:49 | 25.75971 | -80.82191 | 17631 ft | 383 kts | 257° |
| 2026-05-05 15:49 | 25.75201 | -80.85023 | 18027 ft | 385 kts | 257° |
| 2026-05-05 15:49 | 25.74432 | -80.87839 | 18397 ft | 387 kts | 257° |
| 2026-05-05 15:50 | 25.73650 | -80.90699 | 18725 ft | 389 kts | 257° |
| 2026-05-05 15:50 | 25.72865 | -80.93576 | 19059 ft | 390 kts | 257° |
| 2026-05-05 15:50 | 25.72077 | -80.96462 | 19396 ft | 391 kts | 257° |
| 2026-05-05 15:50 | 25.71290 | -80.99352 | 19716 ft | 393 kts | 257° |
| 2026-05-05 15:51 | 25.70498 | -81.02258 | 20035 ft | 394 kts | 257° |
| 2026-05-05 15:51 | 25.69701 | -81.05170 | 20343 ft | 396 kts | 257° |
| 2026-05-05 15:51 | 25.68898 | -81.08094 | 20653 ft | 397 kts | 257° |
| 2026-05-05 15:51 | 25.68090 | -81.11023 | 20947 ft | 398 kts | 257° |
| 2026-05-05 15:52 | 25.67277 | -81.13969 | 21205 ft | 400 kts | 256° |
| 2026-05-05 15:52 | 25.66463 | -81.16921 | 21478 ft | 402 kts | 256° |
| 2026-05-05 15:52 | 25.65737 | -81.19912 | 21747 ft | 401 kts | 263° |
| 2026-05-05 15:52 | 25.65512 | -81.22973 | 22014 ft | 399 kts | 273° |
| 2026-05-05 15:53 | 25.65832 | -81.26017 | 22278 ft | 398 kts | 283° |
| 2026-05-05 15:53 | 25.66669 | -81.28900 | 22518 ft | 399 kts | 294° |
| 2026-05-05 15:53 | 25.67904 | -81.31666 | 22737 ft | 402 kts | 296° |
| 2026-05-05 15:53 | 25.69172 | -81.34436 | 22981 ft | 403 kts | 296° |
| 2026-05-05 15:54 | 25.70440 | -81.37211 | 23286 ft | 404 kts | 296° |
| 2026-05-05 15:54 | 25.71707 | -81.39987 | 23576 ft | 404 kts | 296° |
| 2026-05-05 15:54 | 25.72978 | -81.42773 | 23803 ft | 405 kts | 296° |
| 2026-05-05 15:54 | 25.74249 | -81.45566 | 24022 ft | 406 kts | 296° |
| 2026-05-05 15:55 | 25.75519 | -81.48368 | 24243 ft | 407 kts | 296° |
| 2026-05-05 15:55 | 25.76791 | -81.51179 | 24467 ft | 408 kts | 296° |
| 2026-05-05 15:55 | 25.78071 | -81.53998 | 24681 ft | 409 kts | 296° |
| 2026-05-05 15:55 | 25.79358 | -81.56819 | 24897 ft | 410 kts | 296° |
| 2026-05-05 15:56 | 25.80645 | -81.59646 | 25110 ft | 411 kts | 296° |
| 2026-05-05 15:56 | 25.81932 | -81.62486 | 25324 ft | 412 kts | 296° |
| 2026-05-05 15:56 | 25.83219 | -81.65335 | 25534 ft | 413 kts | 296° |
| 2026-05-05 15:56 | 25.84505 | -81.68191 | 25715 ft | 415 kts | 297° |
| 2026-05-05 15:57 | 25.85797 | -81.71060 | 25919 ft | 416 kts | 297° |
| 2026-05-05 15:57 | 25.87097 | -81.73941 | 26106 ft | 417 kts | 297° |
| 2026-05-05 15:57 | 25.88525 | -81.76743 | 26293 ft | 418 kts | 304° |
| 2026-05-05 15:57 | 25.90372 | -81.79239 | 26456 ft | 420 kts | 314° |
| 2026-05-05 15:58 | 25.92606 | -81.81349 | 26671 ft | 423 kts | 321° |
| 2026-05-05 15:58 | 25.94965 | -81.83312 | 26868 ft | 424 kts | 321° |
| 2026-05-05 15:58 | 25.97294 | -81.85257 | 27072 ft | 425 kts | 321° |
| 2026-05-05 15:58 | 25.99657 | -81.87236 | 27281 ft | 426 kts | 321° |
| 2026-05-05 15:59 | 26.02026 | -81.89224 | 27463 ft | 427 kts | 321° |
| 2026-05-05 15:59 | 26.04392 | -81.91215 | 27725 ft | 427 kts | 321° |
| 2026-05-05 15:59 | 26.06756 | -81.93207 | 28046 ft | 425 kts | 321° |
| 2026-05-05 15:59 | 26.09106 | -81.95187 | 28384 ft | 423 kts | 321° |
| 2026-05-05 16:00 | 26.11446 | -81.97158 | 28706 ft | 421 kts | 321° |
| 2026-05-05 16:00 | 26.13778 | -81.99123 | 29019 ft | 420 kts | 321° |
| 2026-05-05 16:00 | 26.16100 | -82.01083 | 29323 ft | 418 kts | 321° |
| 2026-05-05 16:00 | 26.18411 | -82.03036 | 29618 ft | 417 kts | 321° |
| 2026-05-05 16:01 | 26.20720 | -82.04987 | 29923 ft | 416 kts | 321° |
| 2026-05-05 16:01 | 26.23022 | -82.06933 | 30054 ft | 414 kts | 321° |
| 2026-05-05 16:01 | 26.25304 | -82.08862 | 30070 ft | 410 kts | 321° |
| 2026-05-05 16:02 | 26.29831 | -82.12692 | 30079 ft | 408 kts | 321° |
| 2026-05-05 16:02 | 26.34321 | -82.16493 | 30073 ft | 408 kts | 321° |
| 2026-05-05 16:03 | 26.38835 | -82.20315 | 30070 ft | 406 kts | 321° |
| 2026-05-05 16:03 | 26.43330 | -82.24135 | 30068 ft | 406 kts | 321° |
| 2026-05-05 16:04 | 26.47826 | -82.27954 | 30069 ft | 406 kts | 321° |
| 2026-05-05 16:04 | 26.51568 | -82.31128 | 30071 ft | 406 kts | 321° |
| 2026-05-05 16:05 | 26.56065 | -82.34952 | 30073 ft | 407 kts | 321° |
| 2026-05-05 16:05 | 26.60565 | -82.38787 | 30075 ft | 407 kts | 321° |
| 2026-05-05 16:06 | 26.65067 | -82.42621 | 30066 ft | 407 kts | 321° |
| 2026-05-05 16:06 | 26.69575 | -82.46470 | 30092 ft | 408 kts | 321° |
| 2026-05-05 16:07 | 26.74083 | -82.50323 | 30092 ft | 408 kts | 321° |
| 2026-05-05 16:07 | 26.78593 | -82.54177 | 30090 ft | 408 kts | 321° |
| 2026-05-05 16:08 | 26.83101 | -82.58032 | 30090 ft | 408 kts | 321° |
| 2026-05-05 16:08 | 26.87573 | -82.61867 | 30088 ft | 407 kts | 321° |
| 2026-05-05 16:09 | 26.92070 | -82.65722 | 30083 ft | 407 kts | 321° |
| 2026-05-05 16:09 | 26.96563 | -82.69585 | 30079 ft | 407 kts | 321° |
| 2026-05-05 16:10 | 27.01055 | -82.73444 | 30101 ft | 407 kts | 321° |
| 2026-05-05 16:10 | 27.05543 | -82.77293 | 30091 ft | 406 kts | 321° |
| 2026-05-05 16:11 | 27.10027 | -82.81152 | 30068 ft | 406 kts | 320° |
| 2026-05-05 16:11 | 27.14925 | -82.88740 | 30072 ft | 407 kts | 292° |
| 2026-05-05 16:12 | 27.15882 | -82.91731 | 30068 ft | 407 kts | 291° |
| 2026-05-05 16:13 | 27.20663 | -83.06700 | 30085 ft | 409 kts | 292° |
| 2026-05-05 16:13 | 27.22582 | -83.12717 | 30090 ft | 409 kts | 291° |
| 2026-05-05 16:14 | 27.26404 | -83.24750 | 30081 ft | 409 kts | 292° |
| 2026-05-05 16:15 | 27.30223 | -83.36789 | 30081 ft | 409 kts | 292° |
| 2026-05-05 16:16 | 27.34024 | -83.48840 | 30110 ft | 408 kts | 291° |
| 2026-05-05 16:17 | 27.36849 | -83.57828 | 30097 ft | 408 kts | 291° |
| 2026-05-05 16:18 | 27.39683 | -83.66845 | 30098 ft | 407 kts | 291° |
| 2026-05-05 16:19 | 27.42503 | -83.75860 | 30095 ft | 407 kts | 291° |
| 2026-05-05 16:19 | 27.45326 | -83.84875 | 30089 ft | 407 kts | 291° |
| 2026-05-05 16:20 | 27.49078 | -83.96909 | 30083 ft | 407 kts | 291° |
| 2026-05-05 16:22 | 27.53752 | -84.11975 | 30093 ft | 408 kts | 291° |
| 2026-05-05 16:23 | 27.57469 | -84.24003 | 30096 ft | 408 kts | 291° |
| 2026-05-05 16:23 | 27.60266 | -84.33063 | 30089 ft | 408 kts | 291° |
| 2026-05-05 16:24 | 27.62114 | -84.39107 | 30093 ft | 408 kts | 291° |
| 2026-05-05 16:25 | 27.64894 | -84.48174 | 30093 ft | 408 kts | 291° |
| 2026-05-05 16:25 | 27.67672 | -84.57239 | 30096 ft | 407 kts | 291° |
| 2026-05-05 16:26 | 27.71360 | -84.69326 | 30098 ft | 407 kts | 291° |
| 2026-05-05 16:27 | 27.73194 | -84.75371 | 30097 ft | 407 kts | 291° |
| 2026-05-05 16:27 | 27.75016 | -84.81373 | 30093 ft | 407 kts | 291° |
| 2026-05-05 16:28 | 27.76860 | -84.87407 | 30092 ft | 406 kts | 291° |
| 2026-05-05 16:28 | 27.78686 | -84.93441 | 30094 ft | 406 kts | 291° |
| 2026-05-05 16:29 | 27.80500 | -84.99483 | 30091 ft | 406 kts | 291° |
| 2026-05-05 16:29 | 27.82321 | -85.05529 | 30080 ft | 406 kts | 291° |
| 2026-05-05 16:30 | 27.84143 | -85.11574 | 30079 ft | 407 kts | 290° |
| 2026-05-05 16:30 | 27.85958 | -85.17625 | 30078 ft | 407 kts | 290° |
| 2026-05-05 16:31 | 27.87777 | -85.23687 | 30084 ft | 407 kts | 290° |
| 2026-05-05 16:31 | 27.89599 | -85.29745 | 30082 ft | 407 kts | 291° |
| 2026-05-05 16:32 | 27.91436 | -85.35794 | 30083 ft | 407 kts | 291° |
| 2026-05-05 16:32 | 27.93272 | -85.41845 | 30083 ft | 407 kts | 291° |
| 2026-05-05 16:33 | 27.95095 | -85.47858 | 30078 ft | 407 kts | 290° |
| 2026-05-05 16:33 | 27.96929 | -85.53926 | 30082 ft | 408 kts | 290° |
| 2026-05-05 16:34 | 27.98752 | -85.60003 | 30082 ft | 408 kts | 290° |
| 2026-05-05 16:34 | 28.00579 | -85.66078 | 30108 ft | 408 kts | 290° |
| 2026-05-05 16:35 | 28.02407 | -85.72141 | 30103 ft | 407 kts | 290° |
| 2026-05-05 16:35 | 28.04217 | -85.78200 | 30099 ft | 406 kts | 290° |
| 2026-05-05 16:36 | 28.06022 | -85.84253 | 30096 ft | 406 kts | 290° |
| 2026-05-05 16:36 | 28.07830 | -85.90300 | 30088 ft | 405 kts | 290° |
| 2026-05-05 16:37 | 28.09623 | -85.96311 | 30087 ft | 405 kts | 290° |
| 2026-05-05 16:37 | 28.11422 | -86.02359 | 30085 ft | 405 kts | 290° |
| 2026-05-05 16:38 | 28.13215 | -86.08408 | 30084 ft | 405 kts | 290° |
| 2026-05-05 16:38 | 28.15001 | -86.14462 | 30080 ft | 405 kts | 290° |
| 2026-05-05 16:39 | 28.16790 | -86.20518 | 30062 ft | 405 kts | 290° |
| 2026-05-05 16:39 | 28.18577 | -86.26585 | 30054 ft | 406 kts | 290° |
| 2026-05-05 16:40 | 28.20372 | -86.32664 | 30057 ft | 407 kts | 290° |
| 2026-05-05 16:40 | 28.22167 | -86.38749 | 30063 ft | 407 kts | 290° |
| 2026-05-05 16:41 | 28.23952 | -86.44849 | 30069 ft | 408 kts | 290° |
| 2026-05-05 16:41 | 28.25737 | -86.50944 | 30072 ft | 407 kts | 290° |
| 2026-05-05 16:42 | 28.27520 | -86.57007 | 30059 ft | 407 kts | 290° |
| 2026-05-05 16:42 | 28.29306 | -86.63103 | 30062 ft | 407 kts | 290° |
| 2026-05-05 16:43 | 28.31077 | -86.69214 | 30062 ft | 407 kts | 290° |
| 2026-05-05 16:43 | 28.32853 | -86.75318 | 30058 ft | 407 kts | 290° |
| 2026-05-05 16:44 | 28.34642 | -86.81418 | 30083 ft | 407 kts | 290° |
| 2026-05-05 16:44 | 28.36433 | -86.87509 | 30084 ft | 407 kts | 290° |
| 2026-05-05 16:45 | 28.38212 | -86.93598 | 30081 ft | 406 kts | 290° |
| 2026-05-05 16:45 | 28.39981 | -86.99688 | 30072 ft | 406 kts | 289° |
| 2026-05-05 16:46 | 28.41750 | -87.05776 | 30070 ft | 406 kts | 289° |
| 2026-05-05 16:46 | 28.43516 | -87.11871 | 30068 ft | 406 kts | 289° |
| 2026-05-05 16:47 | 28.45272 | -87.17921 | 30068 ft | 406 kts | 289° |
| 2026-05-05 16:47 | 28.47034 | -87.24008 | 30061 ft | 406 kts | 289° |
| 2026-05-05 16:48 | 28.48797 | -87.30097 | 30060 ft | 406 kts | 289° |
| 2026-05-05 16:48 | 28.50553 | -87.36201 | 30050 ft | 406 kts | 289° |
| 2026-05-05 16:49 | 28.52304 | -87.42303 | 30054 ft | 406 kts | 289° |
| 2026-05-05 16:49 | 28.54054 | -87.48418 | 30058 ft | 407 kts | 289° |
| 2026-05-05 16:50 | 28.55813 | -87.54529 | 30061 ft | 407 kts | 289° |
| 2026-05-05 16:50 | 28.57563 | -87.60651 | 30058 ft | 407 kts | 289° |
| 2026-05-05 16:51 | 28.59306 | -87.66784 | 30064 ft | 407 kts | 289° |
| 2026-05-05 16:51 | 28.61038 | -87.72876 | 30060 ft | 407 kts | 289° |
| 2026-05-05 16:52 | 28.62785 | -87.79016 | 30063 ft | 408 kts | 289° |
| 2026-05-05 16:52 | 28.64525 | -87.85158 | 30067 ft | 408 kts | 289° |
| 2026-05-05 16:53 | 28.66261 | -87.91307 | 30092 ft | 407 kts | 289° |
| 2026-05-05 16:53 | 28.67998 | -87.97440 | 30088 ft | 407 kts | 289° |
| 2026-05-05 16:54 | 28.69728 | -88.03568 | 30085 ft | 406 kts | 289° |
| 2026-05-05 16:54 | 28.71454 | -88.09696 | 30077 ft | 406 kts | 289° |
| 2026-05-05 16:55 | 28.73164 | -88.15783 | 30078 ft | 406 kts | 289° |
| 2026-05-05 16:55 | 28.74880 | -88.21910 | 30081 ft | 406 kts | 289° |
| 2026-05-05 16:56 | 28.76596 | -88.28037 | 30080 ft | 406 kts | 289° |
| 2026-05-05 16:56 | 28.78305 | -88.34163 | 30073 ft | 405 kts | 289° |
| 2026-05-05 16:57 | 28.80015 | -88.40286 | 30072 ft | 405 kts | 289° |
| 2026-05-05 16:57 | 28.81724 | -88.46412 | 30073 ft | 405 kts | 289° |
| 2026-05-05 16:58 | 28.83427 | -88.52536 | 30060 ft | 405 kts | 288° |
| 2026-05-05 16:58 | 28.85124 | -88.58674 | 30055 ft | 406 kts | 288° |
| 2026-05-05 16:59 | 28.86806 | -88.64771 | 30053 ft | 406 kts | 288° |
| 2026-05-05 16:59 | 28.88487 | -88.70916 | 30056 ft | 406 kts | 287° |
| 2026-05-05 17:00 | 28.89907 | -88.77144 | 30056 ft | 406 kts | 284° |
| 2026-05-05 17:00 | 28.91168 | -88.83424 | 30046 ft | 406 kts | 284° |
| 2026-05-05 17:01 | 28.92452 | -88.89690 | 30046 ft | 405 kts | 284° |
| 2026-05-05 17:01 | 28.93778 | -88.95947 | 30040 ft | 405 kts | 284° |
| 2026-05-05 17:02 | 28.95111 | -89.02199 | 30044 ft | 405 kts | 284° |
| 2026-05-05 17:02 | 28.96436 | -89.08445 | 30072 ft | 405 kts | 284° |
| 2026-05-05 17:03 | 28.97750 | -89.14686 | 30069 ft | 403 kts | 284° |
| 2026-05-05 17:03 | 28.99060 | -89.20910 | 30061 ft | 403 kts | 284° |
| 2026-05-05 17:04 | 29.00144 | -89.26084 | 30047 ft | 402 kts | 284° |
| 2026-05-05 17:04 | 29.01441 | -89.32300 | 30039 ft | 403 kts | 284° |
| 2026-05-05 17:05 | 29.02742 | -89.38538 | 30039 ft | 404 kts | 284° |
| 2026-05-05 17:05 | 29.04047 | -89.44783 | 30036 ft | 404 kts | 284° |
| 2026-05-05 17:06 | 29.05349 | -89.51024 | 30040 ft | 404 kts | 284° |
| 2026-05-05 17:06 | 29.06633 | -89.57235 | 30043 ft | 404 kts | 284° |
| 2026-05-05 17:07 | 29.07922 | -89.63485 | 30044 ft | 404 kts | 284° |
| 2026-05-05 17:07 | 29.09213 | -89.69735 | 30034 ft | 404 kts | 284° |
| 2026-05-05 17:08 | 29.10497 | -89.75988 | 30035 ft | 404 kts | 284° |
| 2026-05-05 17:08 | 29.11781 | -89.82241 | 30040 ft | 404 kts | 284° |
| 2026-05-05 17:09 | 29.13068 | -89.88497 | 30040 ft | 404 kts | 284° |
| 2026-05-05 17:09 | 29.14345 | -89.94748 | 30034 ft | 404 kts | 284° |
| 2026-05-05 17:10 | 29.15616 | -90.01007 | 30032 ft | 404 kts | 284° |
| 2026-05-05 17:10 | 29.16876 | -90.07267 | 30033 ft | 404 kts | 284° |
| 2026-05-05 17:11 | 29.18100 | -90.13499 | 30034 ft | 405 kts | 283° |
| 2026-05-05 17:11 | 29.19174 | -90.19822 | 30038 ft | 405 kts | 282° |
| 2026-05-05 17:12 | 29.20200 | -90.26160 | 30040 ft | 405 kts | 282° |
| 2026-05-05 17:12 | 29.21248 | -90.32488 | 30033 ft | 405 kts | 282° |
| 2026-05-05 17:13 | 29.22316 | -90.38817 | 30032 ft | 405 kts | 282° |
| 2026-05-05 17:13 | 29.23376 | -90.45142 | 30032 ft | 405 kts | 282° |
| 2026-05-05 17:14 | 29.24432 | -90.51475 | 30029 ft | 405 kts | 282° |
| 2026-05-05 17:14 | 29.25489 | -90.57800 | 30047 ft | 404 kts | 282° |
| 2026-05-05 17:15 | 29.26537 | -90.64117 | 30039 ft | 403 kts | 283° |
| 2026-05-05 17:15 | 29.27587 | -90.70419 | 30034 ft | 402 kts | 282° |
| 2026-05-05 17:16 | 29.28625 | -90.76713 | 30027 ft | 402 kts | 282° |
| 2026-05-05 17:16 | 29.29651 | -90.82997 | 30034 ft | 401 kts | 282° |
| 2026-05-05 17:17 | 29.30679 | -90.89261 | 30033 ft | 399 kts | 282° |
| 2026-05-05 17:17 | 29.31704 | -90.95509 | 30031 ft | 399 kts | 282° |
| 2026-05-05 17:18 | 29.32725 | -91.01753 | 30030 ft | 398 kts | 282° |
| 2026-05-05 17:18 | 29.33735 | -91.07993 | 30022 ft | 398 kts | 282° |
| 2026-05-05 17:19 | 29.34743 | -91.14234 | 30022 ft | 398 kts | 282° |
| 2026-05-05 17:19 | 29.35759 | -91.20473 | 30003 ft | 399 kts | 281° |
| 2026-05-05 17:20 | 29.36764 | -91.26731 | 29998 ft | 399 kts | 281° |
| 2026-05-05 17:20 | 29.37766 | -91.32999 | 29997 ft | 400 kts | 281° |
| 2026-05-05 17:21 | 29.38771 | -91.39269 | 29999 ft | 400 kts | 281° |
| 2026-05-05 17:22 | 29.40273 | -91.48689 | 30006 ft | 400 kts | 280° |
| 2026-05-05 17:22 | 29.41264 | -91.54973 | 30009 ft | 400 kts | 281° |
| 2026-05-05 17:23 | 29.42262 | -91.61244 | 30010 ft | 400 kts | 281° |
| 2026-05-05 17:23 | 29.43252 | -91.67521 | 30007 ft | 399 kts | 281° |
| 2026-05-05 17:24 | 29.44234 | -91.73783 | 29998 ft | 399 kts | 281° |
| 2026-05-05 17:24 | 29.45213 | -91.80054 | 29999 ft | 399 kts | 281° |
| 2026-05-05 17:25 | 29.46195 | -91.86320 | 29994 ft | 399 kts | 281° |
| 2026-05-05 17:25 | 29.47181 | -91.92590 | 29989 ft | 399 kts | 280° |
| 2026-05-05 17:26 | 29.48151 | -91.98857 | 29982 ft | 399 kts | 280° |
| 2026-05-05 17:26 | 29.49113 | -92.05132 | 29977 ft | 399 kts | 280° |
| 2026-05-05 17:27 | 29.50081 | -92.11411 | 29980 ft | 400 kts | 280° |
| 2026-05-05 17:27 | 29.51050 | -92.17690 | 29982 ft | 400 kts | 280° |
| 2026-05-05 17:28 | 29.52022 | -92.23979 | 29999 ft | 400 kts | 280° |
| 2026-05-05 17:28 | 29.52982 | -92.30258 | 30003 ft | 399 kts | 280° |
| 2026-05-05 17:29 | 29.53934 | -92.36518 | 29995 ft | 398 kts | 280° |
| 2026-05-05 17:29 | 29.54879 | -92.42770 | 29989 ft | 397 kts | 280° |
| 2026-05-05 17:30 | 29.55819 | -92.49009 | 29978 ft | 396 kts | 280° |
| 2026-05-05 17:30 | 29.56759 | -92.55238 | 29975 ft | 396 kts | 280° |
| 2026-05-05 17:31 | 29.57695 | -92.61465 | 29964 ft | 396 kts | 280° |
| 2026-05-05 17:31 | 29.58624 | -92.67693 | 29958 ft | 396 kts | 280° |
| 2026-05-05 17:32 | 29.59554 | -92.73882 | 29951 ft | 396 kts | 280° |
| 2026-05-05 17:32 | 29.60484 | -92.80111 | 29960 ft | 396 kts | 280° |
| 2026-05-05 17:33 | 29.61407 | -92.86350 | 29958 ft | 396 kts | 279° |
| 2026-05-05 17:33 | 29.62329 | -92.92590 | 29954 ft | 396 kts | 280° |
| 2026-05-05 17:34 | 29.63249 | -92.98838 | 29959 ft | 396 kts | 279° |
| 2026-05-05 17:34 | 29.64164 | -93.05082 | 29956 ft | 396 kts | 279° |
| 2026-05-05 17:35 | 29.65080 | -93.11330 | 29965 ft | 396 kts | 279° |
| 2026-05-05 17:35 | 29.65992 | -93.17581 | 29961 ft | 396 kts | 279° |
| 2026-05-05 17:36 | 29.66900 | -93.23824 | 29955 ft | 396 kts | 279° |
| 2026-05-05 17:36 | 29.67805 | -93.30071 | 29947 ft | 396 kts | 279° |
| 2026-05-05 17:37 | 29.68710 | -93.36320 | 29950 ft | 396 kts | 279° |
| 2026-05-05 17:37 | 29.69593 | -93.42532 | 29946 ft | 396 kts | 279° |
| 2026-05-05 17:38 | 29.70485 | -93.48780 | 29945 ft | 396 kts | 279° |
| 2026-05-05 17:38 | 29.71381 | -93.55036 | 29949 ft | 396 kts | 279° |
| 2026-05-05 17:39 | 29.72273 | -93.61292 | 29949 ft | 396 kts | 279° |
| 2026-05-05 17:39 | 29.73161 | -93.67553 | 29953 ft | 396 kts | 279° |
| 2026-05-05 17:40 | 29.74044 | -93.73813 | 29952 ft | 396 kts | 279° |
| 2026-05-05 17:40 | 29.74924 | -93.80075 | 29952 ft | 397 kts | 279° |
| 2026-05-05 17:41 | 29.75805 | -93.86347 | 29945 ft | 397 kts | 279° |
| 2026-05-05 17:41 | 29.76683 | -93.92609 | 29944 ft | 396 kts | 279° |
| 2026-05-05 17:42 | 29.77553 | -93.98871 | 29961 ft | 396 kts | 279° |
| 2026-05-05 17:42 | 29.78417 | -94.05115 | 29956 ft | 394 kts | 279° |
| 2026-05-05 17:43 | 29.79276 | -94.11341 | 29953 ft | 394 kts | 279° |
| 2026-05-05 17:43 | 29.80127 | -94.17518 | 29946 ft | 393 kts | 279° |
| 2026-05-05 17:44 | 29.80981 | -94.23732 | 29941 ft | 393 kts | 279° |
| 2026-05-05 17:44 | 29.81836 | -94.29946 | 29936 ft | 392 kts | 279° |
| 2026-05-05 17:45 | 29.82685 | -94.36150 | 29933 ft | 392 kts | 279° |
| 2026-05-05 17:45 | 29.83523 | -94.42354 | 29923 ft | 392 kts | 279° |
| 2026-05-05 17:46 | 29.84363 | -94.48552 | 29919 ft | 392 kts | 279° |
| 2026-05-05 17:46 | 29.85205 | -94.54750 | 29918 ft | 392 kts | 279° |
| 2026-05-05 17:47 | 29.86028 | -94.60951 | 29911 ft | 392 kts | 278° |
| 2026-05-05 17:47 | 29.86855 | -94.67158 | 29907 ft | 392 kts | 278° |
| 2026-05-05 17:48 | 29.87677 | -94.73321 | 29907 ft | 392 kts | 278° |
| 2026-05-05 17:48 | 29.88504 | -94.79528 | 29908 ft | 392 kts | 278° |
| 2026-05-05 17:49 | 29.89333 | -94.85738 | 29914 ft | 392 kts | 278° |
| 2026-05-05 17:49 | 29.90150 | -94.91947 | 29909 ft | 392 kts | 278° |
| 2026-05-05 17:50 | 29.90969 | -94.98155 | 29916 ft | 392 kts | 278° |
| 2026-05-05 17:50 | 29.91784 | -95.04354 | 29922 ft | 391 kts | 278° |
| 2026-05-05 17:51 | 29.92588 | -95.10549 | 29925 ft | 391 kts | 278° |
| 2026-05-05 17:51 | 29.93388 | -95.16745 | 29924 ft | 391 kts | 278° |
| 2026-05-05 17:52 | 29.94186 | -95.22943 | 29932 ft | 391 kts | 278° |
| 2026-05-05 17:52 | 29.94983 | -95.29092 | 29932 ft | 390 kts | 278° |
| 2026-05-05 17:53 | 29.95778 | -95.35278 | 29928 ft | 390 kts | 278° |
| 2026-05-05 17:53 | 29.96716 | -95.41437 | 29929 ft | 389 kts | 280° |
| 2026-05-05 17:54 | 29.97747 | -95.47566 | 29916 ft | 389 kts | 280° |
| 2026-05-05 17:54 | 29.98762 | -95.53685 | 29919 ft | 389 kts | 279° |
| 2026-05-05 17:55 | 29.99740 | -95.59815 | 29944 ft | 388 kts | 279° |
| 2026-05-05 17:55 | 30.00538 | -95.64907 | 29883 ft | 388 kts | 279° |
| 2026-05-05 17:56 | 30.01508 | -95.71022 | 29892 ft | 387 kts | 279° |
| 2026-05-05 17:56 | 30.02478 | -95.77128 | 29887 ft | 387 kts | 279° |
| 2026-05-05 17:57 | 30.03449 | -95.83228 | 29858 ft | 386 kts | 279° |
| 2026-05-05 17:57 | 30.04413 | -95.89330 | 29847 ft | 387 kts | 279° |
| 2026-05-05 17:58 | 30.05369 | -95.95438 | 29798 ft | 387 kts | 279° |
| 2026-05-05 17:58 | 30.06314 | -96.01541 | 29787 ft | 386 kts | 279° |
| 2026-05-05 17:59 | 30.07258 | -96.07647 | 29757 ft | 386 kts | 279° |
| 2026-05-05 17:59 | 30.08207 | -96.13754 | 29710 ft | 386 kts | 279° |
| 2026-05-05 18:00 | 30.09153 | -96.19854 | 29688 ft | 386 kts | 278° |
| 2026-05-05 18:00 | 30.10090 | -96.25909 | 29697 ft | 386 kts | 278° |
| 2026-05-05 18:01 | 30.11032 | -96.32006 | 29704 ft | 385 kts | 278° |
| 2026-05-05 18:01 | 30.11966 | -96.38100 | 29707 ft | 385 kts | 278° |
| 2026-05-05 18:02 | 30.12899 | -96.44186 | 29701 ft | 385 kts | 278° |
| 2026-05-05 18:02 | 30.13819 | -96.50276 | 29702 ft | 384 kts | 278° |
| 2026-05-05 18:03 | 30.14741 | -96.56355 | 29722 ft | 384 kts | 278° |
| 2026-05-05 18:03 | 30.15659 | -96.62433 | 29766 ft | 384 kts | 278° |
| 2026-05-05 18:04 | 30.16581 | -96.68513 | 29800 ft | 384 kts | 278° |
| 2026-05-05 18:04 | 30.17492 | -96.74551 | 29844 ft | 384 kts | 278° |
| 2026-05-05 18:05 | 30.18400 | -96.80634 | 29882 ft | 384 kts | 278° |
| 2026-05-05 18:05 | 30.19304 | -96.86716 | 29919 ft | 384 kts | 278° |
| 2026-05-05 18:06 | 30.20206 | -96.92799 | 29929 ft | 384 kts | 278° |
| 2026-05-05 18:06 | 30.21112 | -96.98877 | 29934 ft | 384 kts | 278° |
| 2026-05-05 18:07 | 30.22018 | -97.04958 | 29953 ft | 384 kts | 278° |
| 2026-05-05 18:07 | 30.22917 | -97.11036 | 29922 ft | 383 kts | 277° |
| 2026-05-05 18:08 | 30.23800 | -97.17070 | 29821 ft | 383 kts | 277° |
| 2026-05-05 18:08 | 30.24685 | -97.23138 | 29821 ft | 383 kts | 277° |
| 2026-05-05 18:09 | 30.25567 | -97.29207 | 29820 ft | 383 kts | 277° |
| 2026-05-05 18:09 | 30.26457 | -97.35277 | 29839 ft | 383 kts | 277° |
| 2026-05-05 18:10 | 30.27334 | -97.41347 | 29837 ft | 383 kts | 277° |
| 2026-05-05 18:10 | 30.28209 | -97.47417 | 29838 ft | 382 kts | 277° |
| 2026-05-05 18:11 | 30.29084 | -97.53488 | 29835 ft | 382 kts | 277° |
| 2026-05-05 18:11 | 30.29956 | -97.59557 | 29855 ft | 382 kts | 277° |
| 2026-05-05 18:12 | 30.30819 | -97.65627 | 29851 ft | 382 kts | 277° |
| 2026-05-05 18:12 | 30.31677 | -97.71664 | 29849 ft | 383 kts | 277° |
| 2026-05-05 18:13 | 30.32544 | -97.77780 | 29857 ft | 383 kts | 277° |
| 2026-05-05 18:13 | 30.33404 | -97.83820 | 29904 ft | 383 kts | 277° |
| 2026-05-05 18:14 | 30.34269 | -97.89903 | 29916 ft | 383 kts | 277° |
| 2026-05-05 18:14 | 30.35123 | -97.95975 | 29921 ft | 382 kts | 277° |
| 2026-05-05 18:15 | 30.35967 | -98.02050 | 29922 ft | 382 kts | 276° |
| 2026-05-05 18:15 | 30.36811 | -98.08119 | 29913 ft | 382 kts | 276° |
| 2026-05-05 18:16 | 30.37656 | -98.14191 | 29905 ft | 382 kts | 276° |
| 2026-05-05 18:16 | 30.38498 | -98.20256 | 29876 ft | 381 kts | 276° |
| 2026-05-05 18:17 | 30.39337 | -98.26318 | 29884 ft | 381 kts | 276° |
| 2026-05-05 18:17 | 30.40169 | -98.32380 | 29889 ft | 381 kts | 276° |
| 2026-05-05 18:18 | 30.40998 | -98.38442 | 29891 ft | 381 kts | 276° |
| 2026-05-05 18:18 | 30.41824 | -98.44451 | 29838 ft | 380 kts | 276° |
| 2026-05-05 18:19 | 30.42653 | -98.50503 | 29832 ft | 380 kts | 276° |
| 2026-05-05 18:19 | 30.43472 | -98.56555 | 29831 ft | 380 kts | 276° |
| 2026-05-05 18:20 | 30.44284 | -98.62610 | 29834 ft | 380 kts | 276° |
| 2026-05-05 18:20 | 30.45101 | -98.68657 | 29830 ft | 380 kts | 276° |
| 2026-05-05 18:21 | 30.45911 | -98.74704 | 29833 ft | 380 kts | 275° |
| 2026-05-05 18:21 | 30.46716 | -98.80750 | 29826 ft | 379 kts | 275° |
| 2026-05-05 18:22 | 30.47521 | -98.86794 | 29818 ft | 379 kts | 275° |
| 2026-05-05 18:22 | 30.48319 | -98.92799 | 29817 ft | 380 kts | 275° |
| 2026-05-05 18:23 | 30.49123 | -98.98847 | 29812 ft | 380 kts | 275° |
| 2026-05-05 18:23 | 30.49924 | -99.04895 | 29810 ft | 380 kts | 275° |
| 2026-05-05 18:24 | 30.50712 | -99.10945 | 29812 ft | 379 kts | 274° |
| 2026-05-05 18:24 | 30.51499 | -99.16997 | 29815 ft | 379 kts | 274° |
| 2026-05-05 18:25 | 30.52293 | -99.23039 | 29812 ft | 379 kts | 275° |
| 2026-05-05 18:25 | 30.53079 | -99.29084 | 29805 ft | 379 kts | 275° |
| 2026-05-05 18:26 | 30.53864 | -99.35130 | 29801 ft | 379 kts | 275° |
| 2026-05-05 18:26 | 30.54634 | -99.41138 | 29816 ft | 379 kts | 275° |
| 2026-05-05 18:27 | 30.55407 | -99.47187 | 29841 ft | 379 kts | 274° |
| 2026-05-05 18:27 | 30.56181 | -99.53232 | 29859 ft | 379 kts | 274° |
| 2026-05-05 18:28 | 30.57345 | -99.62301 | 29879 ft | 378 kts | 274° |
| 2026-05-05 18:28 | 30.58114 | -99.68333 | 29889 ft | 378 kts | 274° |
| 2026-05-05 18:29 | 30.58873 | -99.74375 | 29899 ft | 379 kts | 274° |
| 2026-05-05 18:29 | 30.59626 | -99.80419 | 29911 ft | 378 kts | 274° |
| 2026-05-05 18:30 | 30.60385 | -99.86462 | 29904 ft | 378 kts | 274° |
| 2026-05-05 18:30 | 30.61130 | -99.92495 | 29880 ft | 377 kts | 274° |
| 2026-05-05 18:31 | 30.61874 | -99.98528 | 29851 ft | 377 kts | 274° |
| 2026-05-05 18:31 | 30.62616 | -100.04561 | 29837 ft | 377 kts | 274° |
| 2026-05-05 18:32 | 30.63358 | -100.10594 | 29812 ft | 377 kts | 274° |
| 2026-05-05 18:32 | 30.64093 | -100.16583 | 29808 ft | 377 kts | 274° |
| 2026-05-05 18:33 | 30.64828 | -100.22616 | 29809 ft | 377 kts | 273° |
| 2026-05-05 18:33 | 30.65561 | -100.28650 | 29816 ft | 378 kts | 273° |
| 2026-05-05 18:34 | 30.66289 | -100.34691 | 29855 ft | 378 kts | 273° |
| 2026-05-05 18:34 | 30.67013 | -100.40729 | 29875 ft | 377 kts | 273° |
| 2026-05-05 18:35 | 30.67738 | -100.46765 | 29907 ft | 377 kts | 273° |
| 2026-05-05 18:35 | 30.68451 | -100.52802 | 29911 ft | 377 kts | 273° |
| 2026-05-05 18:36 | 30.69162 | -100.58833 | 29937 ft | 377 kts | 272° |
| 2026-05-05 18:36 | 30.69882 | -100.64863 | 29939 ft | 377 kts | 272° |
| 2026-05-05 18:37 | 30.70586 | -100.70856 | 29917 ft | 377 kts | 272° |
| 2026-05-05 18:37 | 30.71292 | -100.76889 | 29918 ft | 377 kts | 272° |
| 2026-05-05 18:38 | 30.71995 | -100.82930 | 29888 ft | 377 kts | 272° |
| 2026-05-05 18:38 | 30.72698 | -100.88966 | 29864 ft | 377 kts | 272° |
| 2026-05-05 18:39 | 30.73401 | -100.95010 | 29879 ft | 377 kts | 272° |
| 2026-05-05 18:39 | 30.74099 | -101.01046 | 29901 ft | 377 kts | 272° |
| 2026-05-05 18:40 | 30.74795 | -101.07081 | 29923 ft | 377 kts | 272° |
| 2026-05-05 18:40 | 30.75487 | -101.13078 | 29936 ft | 377 kts | 272° |
| 2026-05-05 18:41 | 30.76173 | -101.19112 | 29968 ft | 377 kts | 272° |
| 2026-05-05 18:41 | 30.76856 | -101.25154 | 29837 ft | 377 kts | 272° |
| 2026-05-05 18:42 | 30.77534 | -101.31189 | 29824 ft | 376 kts | 272° |
| 2026-05-05 18:42 | 30.78214 | -101.37217 | 29821 ft | 376 kts | 272° |
| 2026-05-05 18:43 | 30.78890 | -101.43239 | 29817 ft | 375 kts | 271° |
| 2026-05-05 18:43 | 30.79561 | -101.49264 | 29810 ft | 375 kts | 272° |
| 2026-05-05 18:44 | 30.80232 | -101.55283 | 29807 ft | 375 kts | 272° |
| 2026-05-05 18:44 | 30.80897 | -101.61300 | 29804 ft | 375 kts | 271° |
| 2026-05-05 18:45 | 30.81557 | -101.67316 | 29800 ft | 375 kts | 272° |
| 2026-05-05 18:45 | 30.82220 | -101.73326 | 29814 ft | 375 kts | 271° |
| 2026-05-05 18:46 | 30.82872 | -101.79300 | 29802 ft | 374 kts | 271° |
| 2026-05-05 18:46 | 30.83521 | -101.85306 | 29805 ft | 374 kts | 271° |
| 2026-05-05 18:47 | 30.84169 | -101.91308 | 29797 ft | 374 kts | 271° |
| 2026-05-05 18:47 | 30.84818 | -101.97319 | 29790 ft | 374 kts | 271° |
| 2026-05-05 18:48 | 30.85467 | -102.03324 | 29788 ft | 374 kts | 271° |
| 2026-05-05 18:48 | 30.86112 | -102.09332 | 29799 ft | 374 kts | 271° |
| 2026-05-05 18:49 | 30.86755 | -102.15341 | 29798 ft | 374 kts | 271° |
| 2026-05-05 18:49 | 30.87382 | -102.21350 | 29805 ft | 374 kts | 271° |
| 2026-05-05 18:50 | 30.88010 | -102.27317 | 29802 ft | 374 kts | 271° |
| 2026-05-05 18:50 | 30.88643 | -102.33322 | 29801 ft | 374 kts | 271° |
| 2026-05-05 18:51 | 30.89273 | -102.39330 | 29801 ft | 374 kts | 271° |
| 2026-05-05 18:51 | 30.89897 | -102.45338 | 29804 ft | 374 kts | 270° |
| 2026-05-05 18:52 | 30.90517 | -102.51341 | 29815 ft | 374 kts | 270° |
| 2026-05-05 18:52 | 30.91132 | -102.57353 | 29881 ft | 374 kts | 270° |
| 2026-05-05 18:53 | 30.91742 | -102.63348 | 29902 ft | 372 kts | 270° |
| 2026-05-05 18:53 | 30.92352 | -102.69324 | 29923 ft | 371 kts | 270° |
| 2026-05-05 18:54 | 30.92863 | -102.74281 | 29941 ft | 370 kts | 270° |
| 2026-05-05 18:54 | 30.93564 | -102.81200 | 29969 ft | 370 kts | 270° |
| 2026-05-05 18:55 | 30.93864 | -102.84183 | 29815 ft | 370 kts | 270° |
| 2026-05-05 18:55 | 30.94164 | -102.87157 | 29814 ft | 370 kts | 270° |
| 2026-05-05 18:55 | 30.94659 | -102.92107 | 29816 ft | 370 kts | 270° |
| 2026-05-05 18:56 | 30.95609 | -102.99055 | 29812 ft | 379 kts | 279° |
| 2026-05-05 18:56 | 30.96961 | -103.03917 | 29805 ft | 380 kts | 279° |
| 2026-05-05 18:57 | 30.98581 | -103.09777 | 29816 ft | 380 kts | 279° |
| 2026-05-05 18:57 | 31.00190 | -103.15638 | 29828 ft | 380 kts | 279° |
| 2026-05-05 18:58 | 31.01797 | -103.21503 | 29825 ft | 379 kts | 279° |
| 2026-05-05 18:58 | 31.03407 | -103.27358 | 29824 ft | 379 kts | 279° |
| 2026-05-05 18:59 | 31.05013 | -103.33213 | 29818 ft | 379 kts | 279° |
| 2026-05-05 18:59 | 31.06604 | -103.39073 | 29840 ft | 379 kts | 279° |
| 2026-05-05 19:00 | 31.08191 | -103.44898 | 29851 ft | 379 kts | 279° |
| 2026-05-05 19:00 | 31.09788 | -103.50755 | 29897 ft | 378 kts | 278° |
| 2026-05-05 19:01 | 31.11373 | -103.56588 | 29872 ft | 376 kts | 278° |
| 2026-05-05 19:01 | 31.12947 | -103.62408 | 29865 ft | 376 kts | 278° |
| 2026-05-05 19:02 | 31.14512 | -103.68226 | 29859 ft | 376 kts | 278° |
| 2026-05-05 19:02 | 31.16087 | -103.74056 | 29851 ft | 376 kts | 278° |
| 2026-05-05 19:03 | 31.17662 | -103.79886 | 29859 ft | 377 kts | 278° |
| 2026-05-05 19:03 | 31.19231 | -103.85717 | 29835 ft | 376 kts | 278° |
| 2026-05-05 19:04 | 31.20792 | -103.91556 | 29823 ft | 377 kts | 278° |
| 2026-05-05 19:04 | 31.22346 | -103.97376 | 29837 ft | 378 kts | 278° |
| 2026-05-05 19:05 | 31.23913 | -104.03245 | 29840 ft | 379 kts | 278° |
| 2026-05-05 19:05 | 31.25484 | -104.09120 | 29851 ft | 379 kts | 278° |
| 2026-05-05 19:06 | 31.27044 | -104.14993 | 29856 ft | 379 kts | 278° |
| 2026-05-05 19:06 | 31.28601 | -104.20880 | 29890 ft | 379 kts | 277° |
| 2026-05-05 19:07 | 31.30150 | -104.26732 | 29859 ft | 375 kts | 277° |
| 2026-05-05 19:07 | 31.31688 | -104.32556 | 29854 ft | 375 kts | 277° |
| 2026-05-05 19:08 | 31.33225 | -104.38381 | 29854 ft | 375 kts | 277° |
| 2026-05-05 19:08 | 31.34763 | -104.44209 | 29855 ft | 375 kts | 277° |
| 2026-05-05 19:09 | 31.36285 | -104.49999 | 29843 ft | 375 kts | 277° |
| 2026-05-05 19:09 | 31.37812 | -104.55830 | 29848 ft | 375 kts | 277° |
| 2026-05-05 19:10 | 31.39336 | -104.61662 | 29842 ft | 375 kts | 277° |
| 2026-05-05 19:10 | 31.40855 | -104.67493 | 29851 ft | 375 kts | 277° |
| 2026-05-05 19:11 | 31.42377 | -104.73332 | 29851 ft | 375 kts | 277° |
| 2026-05-05 19:11 | 31.43895 | -104.79162 | 29843 ft | 374 kts | 277° |
| 2026-05-05 19:12 | 31.45410 | -104.84996 | 29845 ft | 375 kts | 277° |
| 2026-05-05 19:12 | 31.46923 | -104.90839 | 29845 ft | 375 kts | 277° |
| 2026-05-05 19:13 | 31.48436 | -104.96679 | 29878 ft | 375 kts | 276° |
| 2026-05-05 19:13 | 31.49939 | -105.02502 | 29866 ft | 376 kts | 276° |
| 2026-05-05 19:14 | 31.51443 | -105.08363 | 29850 ft | 376 kts | 276° |
| 2026-05-05 19:14 | 31.52945 | -105.14233 | 29850 ft | 376 kts | 276° |
| 2026-05-05 19:15 | 31.54449 | -105.20099 | 29847 ft | 376 kts | 276° |
| 2026-05-05 19:15 | 31.55958 | -105.25972 | 29847 ft | 376 kts | 276° |
| 2026-05-05 19:16 | 31.57457 | -105.31846 | 29831 ft | 376 kts | 276° |
| 2026-05-05 19:16 | 31.58954 | -105.37736 | 29817 ft | 377 kts | 276° |
| 2026-05-05 19:17 | 31.60455 | -105.43643 | 29815 ft | 378 kts | 276° |
| 2026-05-05 19:17 | 31.61953 | -105.49551 | 29824 ft | 378 kts | 276° |
| 2026-05-05 19:18 | 31.63452 | -105.55470 | 29833 ft | 379 kts | 276° |
| 2026-05-05 19:18 | 31.64934 | -105.61355 | 29855 ft | 378 kts | 276° |
| 2026-05-05 19:19 | 31.66429 | -105.67280 | 29852 ft | 378 kts | 276° |
| 2026-05-05 19:19 | 31.67920 | -105.73201 | 29839 ft | 378 kts | 276° |
| 2026-05-05 19:20 | 31.69402 | -105.79117 | 29835 ft | 378 kts | 276° |
| 2026-05-05 19:20 | 31.70881 | -105.85036 | 29828 ft | 378 kts | 276° |
| 2026-05-05 19:21 | 31.72361 | -105.90947 | 29828 ft | 378 kts | 276° |
| 2026-05-05 19:21 | 31.73841 | -105.96872 | 29827 ft | 378 kts | 276° |
| 2026-05-05 19:22 | 31.75309 | -106.02796 | 29876 ft | 378 kts | 275° |
| 2026-05-05 19:22 | 31.76780 | -106.08732 | 29900 ft | 379 kts | 275° |
| 2026-05-05 19:23 | 31.78253 | -106.14674 | 29939 ft | 379 kts | 275° |
| 2026-05-05 19:23 | 31.79722 | -106.20628 | 29978 ft | 379 kts | 275° |
| 2026-05-05 19:24 | 31.81184 | -106.26545 | 30008 ft | 379 kts | 275° |
| 2026-05-05 19:24 | 31.81700 | -106.29535 | 30011 ft | 368 kts | 266° |
| 2026-05-05 19:24 | 31.81927 | -106.32522 | 30013 ft | 367 kts | 266° |
| 2026-05-05 19:25 | 31.82366 | -106.38513 | 30031 ft | 369 kts | 266° |
| 2026-05-05 19:25 | 31.82818 | -106.44527 | 30031 ft | 369 kts | 266° |
| 2026-05-05 19:26 | 31.83266 | -106.50550 | 30013 ft | 370 kts | 266° |
| 2026-05-05 19:26 | 31.83713 | -106.56580 | 30012 ft | 370 kts | 266° |
| 2026-05-05 19:27 | 31.84163 | -106.62606 | 30039 ft | 370 kts | 266° |
| 2026-05-05 19:27 | 31.84612 | -106.68630 | 30038 ft | 370 kts | 266° |
| 2026-05-05 19:28 | 31.85047 | -106.74616 | 30040 ft | 370 kts | 266° |
| 2026-05-05 19:28 | 31.85479 | -106.80645 | 30033 ft | 370 kts | 266° |
| 2026-05-05 19:29 | 31.85915 | -106.86671 | 29991 ft | 370 kts | 266° |
| 2026-05-05 19:29 | 31.86130 | -106.89688 | 29804 ft | 370 kts | 266° |
| 2026-05-05 19:29 | 31.86345 | -106.92704 | 29806 ft | 370 kts | 266° |
| 2026-05-05 19:30 | 31.86771 | -106.98744 | 29810 ft | 370 kts | 266° |
| 2026-05-05 19:30 | 31.87199 | -107.04780 | 29813 ft | 371 kts | 266° |
| 2026-05-05 19:31 | 31.87621 | -107.10791 | 29848 ft | 370 kts | 266° |
| 2026-05-05 19:31 | 31.88038 | -107.16818 | 29844 ft | 369 kts | 266° |
| 2026-05-05 19:32 | 31.88453 | -107.22835 | 29845 ft | 369 kts | 266° |
| 2026-05-05 19:32 | 31.88866 | -107.28840 | 29845 ft | 368 kts | 266° |
| 2026-05-05 19:33 | 31.89277 | -107.34845 | 29843 ft | 368 kts | 266° |
| 2026-05-05 19:33 | 31.89682 | -107.40837 | 29841 ft | 367 kts | 266° |
| 2026-05-05 19:34 | 31.90079 | -107.46835 | 29842 ft | 368 kts | 266° |
| 2026-05-05 19:35 | 31.90679 | -107.55842 | 29850 ft | 368 kts | 266° |
| 2026-05-05 19:35 | 31.91079 | -107.61819 | 29907 ft | 369 kts | 267° |
| 2026-05-05 19:36 | 31.91473 | -107.67823 | 29886 ft | 368 kts | 266° |
| 2026-05-05 19:36 | 31.91855 | -107.73821 | 29868 ft | 368 kts | 266° |
| 2026-05-05 19:37 | 31.92571 | -107.79826 | 29875 ft | 379 kts | 276° |
| 2026-05-05 19:37 | 31.94024 | -107.85792 | 29864 ft | 379 kts | 276° |
| 2026-05-05 19:38 | 31.95465 | -107.91766 | 29866 ft | 379 kts | 276° |
| 2026-05-05 19:38 | 31.96892 | -107.97745 | 29864 ft | 379 kts | 276° |
| 2026-05-05 19:39 | 31.98320 | -108.03727 | 29868 ft | 379 kts | 276° |
| 2026-05-05 19:39 | 31.99747 | -108.09709 | 29866 ft | 379 kts | 276° |
| 2026-05-05 19:40 | 32.01168 | -108.15656 | 29868 ft | 379 kts | 276° |
| 2026-05-05 19:40 | 32.02587 | -108.21640 | 29877 ft | 379 kts | 276° |
| 2026-05-05 19:41 | 32.04001 | -108.27624 | 29877 ft | 379 kts | 276° |
| 2026-05-05 19:41 | 32.05418 | -108.33610 | 29877 ft | 379 kts | 276° |
| 2026-05-05 19:42 | 32.06834 | -108.39600 | 29876 ft | 379 kts | 276° |
| 2026-05-05 19:42 | 32.08241 | -108.45585 | 29919 ft | 379 kts | 276° |
| 2026-05-05 19:43 | 32.09643 | -108.51580 | 29936 ft | 379 kts | 276° |
| 2026-05-05 19:43 | 32.11050 | -108.57570 | 29956 ft | 379 kts | 275° |
| 2026-05-05 19:44 | 32.12450 | -108.63565 | 29967 ft | 379 kts | 275° |
| 2026-05-05 19:44 | 32.13844 | -108.69558 | 29982 ft | 379 kts | 275° |
| 2026-05-05 19:45 | 32.15239 | -108.75557 | 29870 ft | 379 kts | 275° |
| 2026-05-05 19:45 | 32.16623 | -108.81520 | 29865 ft | 380 kts | 275° |
| 2026-05-05 19:46 | 32.18018 | -108.87527 | 29862 ft | 380 kts | 275° |
| 2026-05-05 19:46 | 32.19408 | -108.93540 | 29859 ft | 380 kts | 275° |
| 2026-05-05 19:47 | 32.20797 | -108.99556 | 29867 ft | 380 kts | 275° |
| 2026-05-05 19:47 | 32.22180 | -109.05571 | 29887 ft | 379 kts | 275° |
| 2026-05-05 19:48 | 32.23550 | -109.11550 | 29875 ft | 376 kts | 275° |
| 2026-05-05 19:48 | 32.24912 | -109.17508 | 29884 ft | 376 kts | 275° |
| 2026-05-05 19:49 | 32.26269 | -109.23462 | 29873 ft | 375 kts | 275° |
| 2026-05-05 19:49 | 32.27980 | -109.29352 | 29883 ft | 384 kts | 282° |
| 2026-05-05 19:50 | 32.30014 | -109.35137 | 29870 ft | 384 kts | 282° |
| 2026-05-05 19:50 | 32.32052 | -109.40962 | 29877 ft | 383 kts | 281° |
| 2026-05-05 19:51 | 32.34083 | -109.46789 | 29907 ft | 383 kts | 281° |
| 2026-05-05 19:51 | 32.36114 | -109.52611 | 29892 ft | 383 kts | 281° |
| 2026-05-05 19:52 | 32.38145 | -109.58423 | 29893 ft | 382 kts | 281° |
| 2026-05-05 19:52 | 32.40164 | -109.64232 | 29876 ft | 381 kts | 281° |
| 2026-05-05 19:53 | 32.42172 | -109.70025 | 29861 ft | 381 kts | 281° |
| 2026-05-05 19:53 | 32.44179 | -109.75824 | 29860 ft | 382 kts | 281° |
| 2026-05-05 19:54 | 32.46175 | -109.81609 | 29879 ft | 382 kts | 281° |
| 2026-05-05 19:54 | 32.48188 | -109.87438 | 29883 ft | 382 kts | 281° |
| 2026-05-05 19:55 | 32.50199 | -109.93260 | 29883 ft | 381 kts | 281° |
| 2026-05-05 19:55 | 32.52196 | -109.99076 | 29890 ft | 381 kts | 281° |
| 2026-05-05 19:56 | 32.54196 | -110.04891 | 29890 ft | 381 kts | 281° |
| 2026-05-05 19:56 | 32.56187 | -110.10705 | 29947 ft | 380 kts | 280° |
| 2026-05-05 19:57 | 32.58166 | -110.16505 | 29926 ft | 379 kts | 280° |
| 2026-05-05 19:57 | 32.59805 | -110.21315 | 29917 ft | 378 kts | 279° |
| 2026-05-05 19:58 | 32.61770 | -110.27094 | 29888 ft | 377 kts | 279° |
| 2026-05-05 19:58 | 32.63737 | -110.32872 | 29891 ft | 378 kts | 280° |
| 2026-05-05 19:59 | 32.65702 | -110.38657 | 29878 ft | 376 kts | 279° |
| 2026-05-05 19:59 | 32.67664 | -110.44435 | 29888 ft | 379 kts | 279° |
| 2026-05-05 20:00 | 32.69623 | -110.50235 | 29919 ft | 378 kts | 279° |
| 2026-05-05 20:00 | 32.71575 | -110.56018 | 29919 ft | 377 kts | 279° |
| 2026-05-05 20:01 | 32.73531 | -110.61788 | 29946 ft | 376 kts | 279° |
| 2026-05-05 20:01 | 32.75468 | -110.67521 | 29899 ft | 372 kts | 278° |
| 2026-05-05 20:02 | 32.77383 | -110.73238 | 29896 ft | 373 kts | 278° |
| 2026-05-05 20:02 | 32.79300 | -110.78969 | 29909 ft | 374 kts | 279° |
| 2026-05-05 20:03 | 32.81225 | -110.84701 | 29935 ft | 373 kts | 278° |
| 2026-05-05 20:03 | 32.83141 | -110.90433 | 29915 ft | 373 kts | 278° |
| 2026-05-05 20:04 | 32.85036 | -110.96131 | 29915 ft | 373 kts | 278° |
| 2026-05-05 20:04 | 32.86947 | -111.01870 | 29916 ft | 373 kts | 278° |
| 2026-05-05 20:05 | 32.88857 | -111.07607 | 29914 ft | 373 kts | 278° |
| 2026-05-05 20:05 | 32.90759 | -111.13342 | 29951 ft | 373 kts | 278° |
| 2026-05-05 20:06 | 32.92662 | -111.19075 | 29910 ft | 371 kts | 278° |
| 2026-05-05 20:06 | 32.94551 | -111.24785 | 29900 ft | 371 kts | 278° |
| 2026-05-05 20:07 | 32.96435 | -111.30506 | 29892 ft | 372 kts | 278° |
| 2026-05-05 20:07 | 32.98320 | -111.36236 | 29894 ft | 372 kts | 278° |
| 2026-05-05 20:08 | 33.00202 | -111.41973 | 29893 ft | 372 kts | 278° |
| 2026-05-05 20:08 | 33.02085 | -111.47713 | 29896 ft | 372 kts | 278° |
| 2026-05-05 20:09 | 33.03975 | -111.53462 | 29901 ft | 373 kts | 278° |
| 2026-05-05 20:09 | 33.05855 | -111.59215 | 29925 ft | 373 kts | 278° |
| 2026-05-05 20:10 | 33.07739 | -111.64967 | 29958 ft | 372 kts | 278° |
| 2026-05-05 20:10 | 33.09599 | -111.70674 | 29952 ft | 372 kts | 277° |
| 2026-05-05 20:11 | 33.11487 | -111.76463 | 29951 ft | 371 kts | 277° |
| 2026-05-05 20:11 | 33.13354 | -111.82208 | 29959 ft | 371 kts | 277° |
| 2026-05-05 20:12 | 33.15203 | -111.87914 | 29956 ft | 371 kts | 277° |
| 2026-05-05 20:12 | 33.17062 | -111.93660 | 29950 ft | 371 kts | 277° |
| 2026-05-05 20:13 | 33.18916 | -111.99411 | 29941 ft | 371 kts | 277° |
| 2026-05-05 20:13 | 33.20767 | -112.05169 | 29937 ft | 372 kts | 277° |
| 2026-05-05 20:14 | 33.22627 | -112.10931 | 29931 ft | 371 kts | 277° |
| 2026-05-05 20:14 | 33.24468 | -112.16669 | 29945 ft | 370 kts | 277° |
| 2026-05-05 20:15 | 33.26304 | -112.22407 | 29964 ft | 370 kts | 277° |
| 2026-05-05 20:15 | 33.28142 | -112.28145 | 29949 ft | 369 kts | 277° |
| 2026-05-05 20:16 | 33.29966 | -112.33876 | 29945 ft | 370 kts | 277° |
| 2026-05-05 20:16 | 33.31798 | -112.39634 | 29956 ft | 371 kts | 277° |
| 2026-05-05 20:17 | 33.33621 | -112.45357 | 29962 ft | 371 kts | 276° |
| 2026-05-05 20:17 | 33.35450 | -112.51116 | 29968 ft | 370 kts | 276° |
| 2026-05-05 20:18 | 33.37278 | -112.56873 | 29971 ft | 370 kts | 276° |
| 2026-05-05 20:18 | 33.39104 | -112.62630 | 29959 ft | 369 kts | 277° |
| 2026-05-05 20:19 | 33.40919 | -112.68378 | 29954 ft | 369 kts | 276° |
| 2026-05-05 20:19 | 33.42730 | -112.74140 | 29951 ft | 370 kts | 277° |
| 2026-05-05 20:20 | 33.44544 | -112.79911 | 29967 ft | 371 kts | 277° |
| 2026-05-05 20:20 | 33.46419 | -112.85690 | 29946 ft | 375 kts | 278° |
| 2026-05-05 20:21 | 33.48483 | -112.91401 | 29931 ft | 377 kts | 279° |
| 2026-05-05 20:21 | 33.50600 | -112.97154 | 29918 ft | 377 kts | 279° |
| 2026-05-05 20:22 | 33.52676 | -113.02912 | 29902 ft | 376 kts | 279° |
| 2026-05-05 20:22 | 33.54738 | -113.08709 | 29897 ft | 379 kts | 280° |
| 2026-05-05 20:23 | 33.56805 | -113.14532 | 29892 ft | 380 kts | 281° |
| 2026-05-05 20:23 | 33.58882 | -113.20378 | 29877 ft | 381 kts | 281° |
| 2026-05-05 20:24 | 33.60964 | -113.26241 | 29877 ft | 383 kts | 281° |
| 2026-05-05 20:24 | 33.63048 | -113.32119 | 29885 ft | 383 kts | 281° |
| 2026-05-05 20:25 | 33.65127 | -113.38007 | 29892 ft | 383 kts | 281° |
| 2026-05-05 20:25 | 33.67207 | -113.43900 | 29985 ft | 383 kts | 282° |
| 2026-05-05 20:26 | 33.69273 | -113.49763 | 29964 ft | 385 kts | 281° |
| 2026-05-05 20:26 | 33.71360 | -113.55685 | 29962 ft | 386 kts | 282° |
| 2026-05-05 20:27 | 33.73446 | -113.61625 | 29946 ft | 386 kts | 281° |
| 2026-05-05 20:27 | 33.75535 | -113.67601 | 29887 ft | 388 kts | 282° |
| 2026-05-05 20:28 | 33.77624 | -113.73576 | 29884 ft | 387 kts | 281° |
| 2026-05-05 20:28 | 33.79708 | -113.79563 | 29897 ft | 390 kts | 282° |
| 2026-05-05 20:29 | 33.81789 | -113.85581 | 29895 ft | 389 kts | 282° |
| 2026-05-05 20:29 | 33.83817 | -113.91577 | 29927 ft | 390 kts | 283° |
| 2026-05-05 20:30 | 33.85862 | -113.97651 | 29871 ft | 394 kts | 283° |
| 2026-05-05 20:30 | 33.87929 | -114.03771 | 29865 ft | 396 kts | 283° |
| 2026-05-05 20:31 | 33.90015 | -114.09932 | 29866 ft | 398 kts | 283° |
| 2026-05-05 20:31 | 33.91348 | -114.16285 | 29867 ft | 391 kts | 274° |
| 2026-05-05 20:32 | 33.92437 | -114.22698 | 29873 ft | 391 kts | 274° |
| 2026-05-05 20:32 | 33.93526 | -114.29125 | 29887 ft | 392 kts | 274° |
| 2026-05-05 20:33 | 33.94617 | -114.35561 | 29884 ft | 392 kts | 274° |
| 2026-05-05 20:33 | 33.95702 | -114.42000 | 29901 ft | 393 kts | 275° |
| 2026-05-05 20:34 | 33.96778 | -114.48422 | 29901 ft | 395 kts | 276° |
| 2026-05-05 20:34 | 33.97864 | -114.54942 | 29879 ft | 398 kts | 276° |
| 2026-05-05 20:35 | 33.98958 | -114.61499 | 29880 ft | 400 kts | 276° |
| 2026-05-05 20:35 | 34.00052 | -114.68084 | 29884 ft | 401 kts | 276° |
| 2026-05-05 20:36 | 34.01146 | -114.74691 | 29889 ft | 402 kts | 276° |
| 2026-05-05 20:36 | 34.02234 | -114.81299 | 29902 ft | 402 kts | 276° |
| 2026-05-05 20:37 | 34.03320 | -114.87918 | 29904 ft | 402 kts | 276° |
| 2026-05-05 20:37 | 34.04406 | -114.94528 | 29904 ft | 402 kts | 276° |
| 2026-05-05 20:38 | 34.05486 | -115.01149 | 29914 ft | 402 kts | 276° |
| 2026-05-05 20:38 | 34.06571 | -115.07780 | 29905 ft | 403 kts | 276° |
| 2026-05-05 20:39 | 34.07657 | -115.14436 | 29891 ft | 406 kts | 277° |
| 2026-05-05 20:39 | 34.08734 | -115.21109 | 29884 ft | 409 kts | 277° |
| 2026-05-05 20:40 | 34.09823 | -115.27863 | 29891 ft | 411 kts | 277° |
| 2026-05-05 20:40 | 34.10916 | -115.34646 | 29898 ft | 412 kts | 278° |
| 2026-05-05 20:41 | 34.12007 | -115.41452 | 29904 ft | 413 kts | 277° |
| 2026-05-05 20:41 | 34.13096 | -115.48267 | 29905 ft | 414 kts | 278° |
| 2026-05-05 20:42 | 34.14187 | -115.55090 | 29914 ft | 414 kts | 277° |
| 2026-05-05 20:42 | 34.15268 | -115.61923 | 29915 ft | 414 kts | 277° |
| 2026-05-05 20:43 | 34.16170 | -115.68772 | 29915 ft | 412 kts | 270° |
| 2026-05-05 20:43 | 34.15730 | -115.75631 | 29915 ft | 410 kts | 262° |
| 2026-05-05 20:44 | 34.15063 | -115.82447 | 29920 ft | 412 kts | 262° |
| 2026-05-05 20:44 | 34.14398 | -115.89339 | 29945 ft | 414 kts | 262° |
| 2026-05-05 20:45 | 34.13396 | -115.99727 | 29961 ft | 417 kts | 263° |
| 2026-05-05 20:45 | 34.12714 | -116.06696 | 29974 ft | 419 kts | 263° |
| 2026-05-05 20:46 | 34.12027 | -116.13693 | 29982 ft | 420 kts | 262° |
| 2026-05-05 20:46 | 34.11330 | -116.20704 | 29982 ft | 421 kts | 262° |
| 2026-05-05 20:47 | 34.10632 | -116.27689 | 29561 ft | 415 kts | 263° |
| 2026-05-05 20:47 | 34.10287 | -116.31137 | 29279 ft | 413 kts | 263° |
| 2026-05-05 20:47 | 34.09933 | -116.34572 | 28997 ft | 412 kts | 263° |
| 2026-05-05 20:48 | 34.09568 | -116.37995 | 28719 ft | 410 kts | 262° |
| 2026-05-05 20:48 | 34.09196 | -116.41399 | 28443 ft | 409 kts | 262° |
| 2026-05-05 20:48 | 34.08826 | -116.44792 | 28170 ft | 407 kts | 263° |
| 2026-05-05 20:48 | 34.08457 | -116.48174 | 27901 ft | 406 kts | 263° |
| 2026-05-05 20:49 | 34.08091 | -116.51540 | 27635 ft | 404 kts | 263° |
| 2026-05-05 20:49 | 34.07728 | -116.54895 | 27369 ft | 402 kts | 263° |
| 2026-05-05 20:49 | 34.07368 | -116.58232 | 27103 ft | 399 kts | 263° |
| 2026-05-05 20:49 | 34.07024 | -116.61528 | 26701 ft | 393 kts | 263° |
| 2026-05-05 20:50 | 34.06717 | -116.64748 | 26245 ft | 389 kts | 265° |
| 2026-05-05 20:50 | 34.06517 | -116.66931 | 25925 ft | 388 kts | 265° |
| 2026-05-05 20:50 | 34.06137 | -116.71191 | 25330 ft | 384 kts | 265° |
| 2026-05-05 20:50 | 34.05849 | -116.74393 | 24882 ft | 383 kts | 265° |
| 2026-05-05 20:51 | 34.05560 | -116.77571 | 24466 ft | 380 kts | 265° |
| 2026-05-05 20:51 | 34.05269 | -116.80731 | 24044 ft | 379 kts | 266° |
| 2026-05-05 20:51 | 34.04975 | -116.83878 | 23616 ft | 376 kts | 265° |
| 2026-05-05 20:51 | 34.04681 | -116.87002 | 23168 ft | 373 kts | 264° |
| 2026-05-05 20:52 | 34.04378 | -116.90090 | 22749 ft | 369 kts | 264° |
| 2026-05-05 20:52 | 34.04019 | -116.93134 | 22347 ft | 365 kts | 263° |
| 2026-05-05 20:52 | 34.03622 | -116.96138 | 21941 ft | 361 kts | 262° |
| 2026-05-05 20:52 | 34.03212 | -116.99110 | 21521 ft | 357 kts | 262° |
| 2026-05-05 20:53 | 34.02944 | -117.01057 | 21249 ft | 354 kts | 262° |
| 2026-05-05 20:53 | 34.02546 | -117.03973 | 20845 ft | 351 kts | 262° |
| 2026-05-05 20:53 | 34.02179 | -117.06864 | 20422 ft | 348 kts | 263° |
| 2026-05-05 20:53 | 34.01839 | -117.09738 | 20007 ft | 345 kts | 264° |
| 2026-05-05 20:54 | 34.01512 | -117.12627 | 19593 ft | 354 kts | 264° |
| 2026-05-05 20:54 | 34.01179 | -117.15581 | 19179 ft | 357 kts | 263° |
| 2026-05-05 20:54 | 34.00835 | -117.18538 | 18711 ft | 356 kts | 264° |
| 2026-05-05 20:54 | 34.00481 | -117.21489 | 18309 ft | 354 kts | 264° |
| 2026-05-05 20:55 | 34.00127 | -117.24408 | 17816 ft | 351 kts | 263° |
| 2026-05-05 20:55 | 33.99774 | -117.27307 | 17352 ft | 348 kts | 264° |
| 2026-05-05 20:55 | 33.99426 | -117.30178 | 16886 ft | 344 kts | 263° |
| 2026-05-05 20:55 | 33.99084 | -117.33022 | 16437 ft | 340 kts | 263° |
| 2026-05-05 20:56 | 33.98753 | -117.35827 | 16009 ft | 337 kts | 263° |
| 2026-05-05 20:56 | 33.98428 | -117.38604 | 15582 ft | 333 kts | 264° |
| 2026-05-05 20:56 | 33.98105 | -117.41357 | 15155 ft | 331 kts | 263° |
| 2026-05-05 20:56 | 33.97785 | -117.44098 | 14730 ft | 329 kts | 263° |
| 2026-05-05 20:57 | 33.97471 | -117.46822 | 14303 ft | 326 kts | 265° |
| 2026-05-05 20:57 | 33.97429 | -117.49524 | 13906 ft | 321 kts | 276° |
| 2026-05-05 20:57 | 33.97817 | -117.52152 | 13489 ft | 316 kts | 283° |
| 2026-05-05 20:57 | 33.98287 | -117.54728 | 12901 ft | 315 kts | 283° |
| 2026-05-05 20:58 | 33.98748 | -117.57313 | 12419 ft | 314 kts | 283° |
| 2026-05-05 20:58 | 33.99201 | -117.59892 | 11897 ft | 315 kts | 283° |
| 2026-05-05 20:58 | 33.99650 | -117.62464 | 11418 ft | 314 kts | 284° |
| 2026-05-05 20:58 | 34.00099 | -117.65025 | 11056 ft | 311 kts | 284° |
| 2026-05-05 20:59 | 34.00502 | -117.67603 | 10699 ft | 313 kts | 278° |
| 2026-05-05 20:59 | 34.00488 | -117.70219 | 10550 ft | 312 kts | 265° |
| 2026-05-05 20:59 | 34.00234 | -117.72774 | 10396 ft | 299 kts | 265° |
| 2026-05-05 20:59 | 33.99991 | -117.75226 | 9892 ft | 292 kts | 265° |
| 2026-05-05 21:00 | 33.99755 | -117.77629 | 9450 ft | 284 kts | 266° |
| 2026-05-05 21:00 | 33.99527 | -117.79975 | 9168 ft | 282 kts | 266° |
| 2026-05-05 21:00 | 33.99299 | -117.82317 | 8820 ft | 281 kts | 266° |
| 2026-05-05 21:00 | 33.99073 | -117.84653 | 8466 ft | 280 kts | 265° |
| 2026-05-05 21:01 | 33.98848 | -117.86973 | 8110 ft | 278 kts | 265° |
| 2026-05-05 21:01 | 33.98623 | -117.89279 | 7754 ft | 277 kts | 264° |
| 2026-05-05 21:01 | 33.98397 | -117.91578 | 7408 ft | 276 kts | 264° |
| 2026-05-05 21:01 | 33.98173 | -117.93866 | 7060 ft | 275 kts | 264° |
| 2026-05-05 21:02 | 33.97953 | -117.96143 | 6715 ft | 273 kts | 264° |
| 2026-05-05 21:02 | 33.97737 | -117.98385 | 6373 ft | 271 kts | 263° |
| 2026-05-05 21:02 | 33.97518 | -118.00636 | 6023 ft | 270 kts | 263° |
| 2026-05-05 21:02 | 33.97295 | -118.02897 | 5676 ft | 274 kts | 263° |
| 2026-05-05 21:03 | 33.97068 | -118.05196 | 5323 ft | 277 kts | 262° |
| 2026-05-05 21:03 | 33.96836 | -118.07496 | 5074 ft | 272 kts | 263° |
| 2026-05-05 21:03 | 33.96611 | -118.09710 | 4789 ft | 268 kts | 263° |
| 2026-05-05 21:03 | 33.96388 | -118.11935 | 4431 ft | 267 kts | 263° |
| 2026-05-05 21:04 | 33.96168 | -118.14153 | 4054 ft | 266 kts | 262° |
| 2026-05-05 21:04 | 33.95947 | -118.16360 | 3711 ft | 265 kts | 262° |
| 2026-05-05 21:04 | 33.95728 | -118.18554 | 3378 ft | 263 kts | 261° |
| 2026-05-05 21:04 | 33.95515 | -118.20670 | 3040 ft | 260 kts | 261° |
| 2026-05-05 21:05 | 33.95299 | -118.22823 | 2690 ft | 257 kts | 261° |
| 2026-05-05 21:05 | 33.95091 | -118.24899 | 2368 ft | 240 kts | 260° |
| 2026-05-05 21:05 | 33.94897 | -118.26833 | 2048 ft | 227 kts | 261° |
| 2026-05-05 21:05 | 33.94711 | -118.28670 | 1771 ft | 215 kts | 261° |
| 2026-05-05 21:06 | 33.94534 | -118.30415 | 1464 ft | 204 kts | 260° |
| 2026-05-05 21:06 | 33.94370 | -118.32038 | 1202 ft | 183 kts | 261° |
| 2026-05-05 21:06 | 33.94227 | -118.33449 | 982 ft | 155 kts | 262° |
| 2026-05-05 21:06 | 33.94110 | -118.34694 | 817 ft | 147 kts | 263° |
| 2026-05-05 21:07 | 33.93995 | -118.35877 | 545 ft | 140 kts | 263° |
| 2026-05-05 21:07 | 33.93877 | -118.37010 | 388 ft | 135 kts | 265° |
| 2026-05-05 21:07 | 33.93752 | -118.38122 | 220 ft | 137 kts | 262° |
| 2026-05-05 21:07 | 33.93640 | -118.39250 | 149 ft | 130 kts | 259° |
| 2026-05-05 21:08 | 33.93539 | -118.40186 | 125 ft | 98 kts | 262° |
| 2026-05-05 21:08 | 33.93479 | -118.40804 | 121 ft | 50 kts | 262° |
| 2026-05-05 21:08 | 33.93485 | -118.41092 | 123 ft | 23 kts | 303° |
| 2026-05-05 21:08 | 33.93537 | -118.41195 | 121 ft | 7 kts | 288° |
| 2026-05-05 21:09 | 33.93545 | -118.41220 | 125 ft | 3 kts | 293° |
| 2026-05-05 21:09 | 33.93576 | -118.41253 | 121 ft | 8 kts | 333° |
| 2026-05-05 21:09 | 33.93632 | -118.41266 | 126 ft | 9 kts | 353° |
| 2026-05-05 21:09 | 33.93699 | -118.41277 | 124 ft | 10 kts | 352° |
| 2026-05-05 21:10 | 33.93729 | -118.41280 | 124 ft | 4 kts | 358° |
| 2026-05-05 21:10 | 33.93763 | -118.41231 | 126 ft | 12 kts | 89° |
| 2026-05-05 21:10 | 33.93762 | -118.41159 | 125 ft | 9 kts | 90° |
| 2026-05-05 21:10 | 33.93768 | -118.41080 | 124 ft | 10 kts | 85° |
| 2026-05-05 21:11 | 33.93777 | -118.40988 | 126 ft | 12 kts | 82° |
| 2026-05-05 21:11 | 33.93788 | -118.40883 | 126 ft | 13 kts | 82° |
| 2026-05-05 21:11 | 33.93801 | -118.40774 | 123 ft | 10 kts | 76° |
| 2026-05-05 21:11 | 33.93847 | -118.40735 | 124 ft | 9 kts | 11° |
| 2026-05-05 21:12 | 33.93892 | -118.40687 | 121 ft | 7 kts | 75° |
| 2026-05-05 21:12 | 33.93898 | -118.40663 | 122 ft | 3 kts | 63° |
| 2026-05-05 21:12 | 33.93919 | -118.40646 | 123 ft | 4 kts | 8° |
| 2026-05-05 21:12 | 33.93951 | -118.40653 | 124 ft | 5 kts | 353° |
| 2026-05-05 21:13 | 33.93963 | -118.40655 | 123 ft | 0 kts | 352° |